createdAt,value
2018-01-01T00:01:15.010Z,98870.27
2018-01-01T00:03:42.406Z,98866.18
2018-01-01T00:06:09.811Z,98860.41
2018-01-01T00:08:37.202Z,98862.34
2018-01-01T00:11:04.711Z,98858.51
2018-01-01T00:13:32.106Z,98859.91
2018-01-01T00:15:59.525Z,98865.55
2018-01-01T00:18:26.918Z,98864.49
2018-01-01T00:20:55.121Z,98847.12
2018-01-01T00:23:23.321Z,98856.16
2018-01-01T00:25:50.726Z,98857.02
2018-01-01T00:28:18.122Z,98862.48
2018-01-01T00:30:45.526Z,98860.51
2018-01-01T00:33:12.918Z,98853.38
2018-01-01T00:35:40.415Z,98844.47
2018-01-01T00:38:07.811Z,98850.41
2018-01-01T00:40:35.228Z,98857.67
2018-01-01T00:43:02.614Z,98866.05
2018-01-01T00:45:30.008Z,98867.48
2018-01-01T00:47:57.408Z,98858.58
2018-01-01T00:50:24.814Z,98865.47
2018-01-01T00:52:52.190Z,98867.73
2018-01-01T00:55:19.587Z,98875.23
2018-01-01T00:57:46.974Z,98880.89
2018-01-01T01:00:14.458Z,98887.20
2018-01-01T01:02:41.842Z,98883.45
2018-01-01T01:05:09.262Z,98872.22
2018-01-01T01:07:36.646Z,98883.36
2018-01-01T01:10:04.042Z,98891.76
2018-01-01T01:12:31.474Z,98889.13
2018-01-01T01:14:58.880Z,98878.37
2018-01-01T01:17:26.270Z,98903.00
2018-01-01T01:19:53.670Z,98890.77
2018-01-01T01:22:21.203Z,98895.84
2018-01-01T01:24:48.594Z,98894.87
2018-01-01T01:27:16.380Z,98889.22
2018-01-01T01:29:43.775Z,98895.08
2018-01-01T01:32:11.184Z,98899.39
2018-01-01T01:34:38.586Z,98900.50
2018-01-01T01:37:05.978Z,98907.31
2018-01-01T01:39:33.598Z,98915.58
2018-01-01T01:42:01.086Z,98922.58
2018-01-01T01:44:28.598Z,98921.27
2018-01-01T01:46:55.991Z,98920.86
2018-01-01T01:49:23.432Z,98917.30
2018-01-01T01:51:50.824Z,98915.08
2018-01-01T01:54:18.210Z,98909.34
2018-01-01T01:56:45.614Z,98903.05
2018-01-01T01:59:13.005Z,98918.84
2018-01-01T02:01:40.398Z,98911.39
2018-01-01T02:04:07.790Z,98924.59
2018-01-01T02:06:35.183Z,98934.13
2018-01-01T02:09:02.574Z,98943.48
2018-01-01T02:11:29.978Z,98936.91
2018-01-01T02:13:57.357Z,98931.88
2018-01-01T02:16:24.770Z,98933.77
2018-01-01T02:18:52.146Z,98929.70
2018-01-01T02:21:19.543Z,98930.08
2018-01-01T02:23:46.938Z,98912.36
2018-01-01T02:26:14.330Z,98914.37
2018-01-01T02:28:41.730Z,98920.34
2018-01-01T02:31:09.228Z,98924.42
2018-01-01T02:33:36.617Z,98924.34
2018-01-01T02:36:04.003Z,98914.80
2018-01-01T02:38:31.398Z,98913.06
2018-01-01T02:40:58.784Z,98908.03
2018-01-01T02:43:26.171Z,98909.24
2018-01-01T02:45:53.563Z,98899.53
2018-01-01T02:48:20.947Z,98912.09
2018-01-01T02:50:48.338Z,98914.16
2018-01-01T02:53:15.818Z,98907.52
2018-01-01T02:55:43.205Z,98918.08
2018-01-01T02:58:10.586Z,98908.12
2018-01-01T03:00:38.090Z,98920.05
2018-01-01T03:03:05.481Z,98908.06
2018-01-01T03:05:32.909Z,98922.77
2018-01-01T03:08:00.286Z,98925.38
2018-01-01T03:10:27.690Z,98926.32
2018-01-01T03:12:55.167Z,98944.14
2018-01-01T03:15:22.576Z,98937.12
2018-01-01T03:17:49.978Z,98925.72
2018-01-01T03:20:17.373Z,98915.93
2018-01-01T03:22:44.757Z,98915.15
2018-01-01T03:25:12.161Z,98927.39
2018-01-01T03:27:39.594Z,98917.42
2018-01-01T03:30:06.983Z,98925.63
2018-01-01T03:32:34.374Z,98923.00
2018-01-01T03:35:02.035Z,98927.44
2018-01-01T03:37:29.426Z,98914.35
2018-01-01T03:39:56.820Z,98915.91
2018-01-01T03:42:24.203Z,98918.74
2018-01-01T03:44:51.589Z,98914.44
2018-01-01T03:47:18.988Z,98919.55
2018-01-01T03:49:46.383Z,98924.73
2018-01-01T03:52:13.783Z,98924.28
2018-01-01T03:54:41.223Z,98919.00
2018-01-01T03:57:08.602Z,98922.43
2018-01-01T03:59:35.984Z,98926.83
2018-01-01T04:02:03.379Z,98932.89
2018-01-01T04:04:31.389Z,98923.85
2018-01-01T04:06:58.783Z,98910.37
2018-01-01T04:09:26.186Z,98904.83
2018-01-01T04:11:53.582Z,98906.91
2018-01-01T04:14:20.970Z,98901.29
2018-01-01T04:16:48.377Z,98916.09
2018-01-01T04:19:15.754Z,98899.84
2018-01-01T04:21:43.155Z,98903.84
2018-01-01T04:24:10.594Z,98904.38
2018-01-01T04:26:38.004Z,98908.34
2018-01-01T04:29:05.384Z,98913.95
2018-01-01T04:31:32.870Z,98903.78
2018-01-01T04:34:00.286Z,98915.56
2018-01-01T04:36:27.686Z,98903.75
2018-01-01T04:38:55.088Z,98907.03
2018-01-01T04:41:22.593Z,98900.14
2018-01-01T04:43:49.994Z,98895.56
2018-01-01T04:46:17.394Z,98905.79
2018-01-01T04:48:44.785Z,98902.98
2018-01-01T04:51:12.186Z,98904.11
2018-01-01T04:53:39.588Z,98893.95
2018-01-01T04:56:06.984Z,98906.00
2018-01-01T04:58:34.358Z,98897.69
2018-01-01T05:01:01.750Z,98911.08
2018-01-01T05:03:29.137Z,98903.55
2018-01-01T05:05:56.530Z,98914.35
2018-01-01T05:08:23.918Z,98915.18
2018-01-01T05:10:51.306Z,98916.08
2018-01-01T05:13:18.686Z,98912.73
2018-01-01T05:15:46.154Z,98921.20
2018-01-01T05:18:13.546Z,98919.09
2018-01-01T05:20:40.937Z,98930.12
2018-01-01T05:23:08.317Z,98933.58
2018-01-01T05:25:35.708Z,98949.59
2018-01-01T05:28:03.095Z,98941.24
2018-01-01T05:30:30.482Z,98946.78
2018-01-01T05:32:57.894Z,98954.63
2018-01-01T05:35:25.276Z,98949.55
2018-01-01T05:37:52.663Z,98948.28
2018-01-01T05:40:20.100Z,98944.47
2018-01-01T05:42:47.507Z,98950.47
2018-01-01T05:45:14.995Z,98944.30
2018-01-01T05:47:42.454Z,98944.59
2018-01-01T05:50:09.926Z,98952.22
2018-01-01T05:52:37.315Z,98965.52
2018-01-01T05:55:04.707Z,98976.23
2018-01-01T05:57:32.099Z,98974.13
2018-01-01T05:59:59.474Z,98971.70
2018-01-01T06:02:26.867Z,98980.99
2018-01-01T06:04:54.249Z,98984.94
2018-01-01T06:07:21.635Z,98991.19
2018-01-01T06:09:49.014Z,99004.69
2018-01-01T06:12:16.438Z,99007.61
2018-01-01T06:14:43.819Z,99016.23
2018-01-01T06:17:11.210Z,99027.84
2018-01-01T06:19:38.591Z,99018.20
2018-01-01T06:22:05.986Z,99019.00
2018-01-01T06:24:33.366Z,99018.52
2018-01-01T06:27:00.757Z,99026.52
2018-01-01T06:29:28.134Z,99027.59
2018-01-01T06:31:55.544Z,99031.42
2018-01-01T06:34:23.038Z,99044.58
2018-01-01T06:36:50.428Z,99034.58
2018-01-01T06:39:17.810Z,99059.77
2018-01-01T06:41:45.201Z,99046.73
2018-01-01T06:44:12.578Z,99050.25
2018-01-01T06:46:39.976Z,99059.15
2018-01-01T06:49:07.365Z,99067.59
2018-01-01T06:51:34.758Z,99059.94
2018-01-01T06:54:02.163Z,99086.01
2018-01-01T06:56:29.544Z,99085.34
2018-01-01T06:58:56.931Z,99109.61
2018-01-01T07:01:24.321Z,99116.73
2018-01-01T07:03:51.722Z,99113.04
2018-01-01T07:06:19.105Z,99125.16
2018-01-01T07:08:46.590Z,99130.10
2018-01-01T07:11:13.976Z,99127.95
2018-01-01T07:13:41.402Z,99139.98
2018-01-01T07:16:08.782Z,99136.62
2018-01-01T07:18:36.169Z,99156.89
2018-01-01T07:21:03.550Z,99150.48
2018-01-01T07:23:31.027Z,99165.83
2018-01-01T07:25:58.406Z,99178.31
2018-01-01T07:28:25.831Z,99150.08
2018-01-01T07:30:53.216Z,99172.88
2018-01-01T07:33:20.606Z,99186.42
2018-01-01T07:35:47.982Z,99189.75
2018-01-01T07:38:15.375Z,99195.11
2018-01-01T07:40:42.806Z,99198.27
2018-01-01T07:43:10.209Z,99194.64
2018-01-01T07:45:37.597Z,99195.61
2018-01-01T07:48:04.987Z,99212.87
2018-01-01T07:50:32.369Z,99206.39
2018-01-01T07:52:59.759Z,99211.22
2018-01-01T07:55:27.138Z,99201.02
2018-01-01T07:57:54.534Z,99208.45
2018-01-01T08:00:21.917Z,99206.95
2018-01-01T08:02:49.322Z,99213.91
2018-01-01T08:05:16.700Z,99222.68
2018-01-01T08:07:44.099Z,99231.84
2018-01-01T08:10:11.574Z,99231.33
2018-01-01T08:12:38.968Z,99231.09
2018-01-01T08:15:06.346Z,99245.02
2018-01-01T08:17:33.834Z,99260.63
2018-01-01T08:20:01.206Z,99257.23
2018-01-01T08:22:28.595Z,99261.56
2018-01-01T08:24:55.978Z,99264.26
2018-01-01T08:27:23.381Z,99271.91
2018-01-01T08:29:50.750Z,99279.67
2018-01-01T08:32:18.180Z,99277.36
2018-01-01T08:34:45.568Z,99296.98
2018-01-01T08:37:12.950Z,99294.19
2018-01-01T08:39:40.422Z,99295.02
2018-01-01T08:42:07.809Z,99306.20
2018-01-01T08:44:35.223Z,99302.42
2018-01-01T08:47:02.583Z,99311.23
2018-01-01T08:49:29.974Z,99315.14
2018-01-01T08:51:57.407Z,99308.86
2018-01-01T08:54:25.173Z,99309.53
2018-01-01T08:56:52.551Z,99318.28
2018-01-01T08:59:19.948Z,99319.24
2018-01-01T09:01:47.322Z,99327.19
2018-01-01T09:04:14.726Z,99333.54
2018-01-01T09:06:42.113Z,99340.37
2018-01-01T09:09:09.597Z,99337.45
2018-01-01T09:11:36.992Z,99346.27
2018-01-01T09:14:04.383Z,99335.12
2018-01-01T09:16:31.870Z,99340.84
2018-01-01T09:18:59.267Z,99335.25
2018-01-01T09:21:26.650Z,99341.61
2018-01-01T09:23:54.038Z,99350.90
2018-01-01T09:26:21.422Z,99361.53
2018-01-01T09:28:48.816Z,99363.61
2018-01-01T09:31:16.197Z,99360.07
2018-01-01T09:33:43.596Z,99365.16
2018-01-01T09:36:10.974Z,99362.34
2018-01-01T09:38:38.361Z,99366.11
2018-01-01T09:41:05.744Z,99367.55
2018-01-01T09:43:33.126Z,99363.81
2018-01-01T09:46:00.507Z,99356.39
2018-01-01T09:48:27.898Z,99369.33
2018-01-01T09:50:55.282Z,99359.36
2018-01-01T09:53:22.675Z,99360.34
2018-01-01T09:55:50.062Z,99352.94
2018-01-01T09:58:17.450Z,99355.94
2018-01-01T10:00:44.830Z,99358.01
2018-01-01T10:03:12.212Z,99344.08
2018-01-01T10:05:39.594Z,99360.25
2018-01-01T10:08:06.982Z,99345.11
2018-01-01T10:10:34.365Z,99366.44
2018-01-01T10:13:01.755Z,99349.19
2018-01-01T10:15:29.638Z,99352.34
2018-01-01T10:17:57.077Z,99349.19
2018-01-01T10:20:24.420Z,99354.38
2018-01-01T10:22:51.846Z,99364.86
2018-01-01T10:25:19.236Z,99360.28
2018-01-01T10:27:46.614Z,99353.45
2018-01-01T10:30:14.012Z,99364.23
2018-01-01T10:32:41.386Z,99353.53
2018-01-01T10:35:08.778Z,99349.05
2018-01-01T10:37:36.163Z,99349.19
2018-01-01T10:40:03.553Z,99348.45
2018-01-01T10:42:30.926Z,99344.47
2018-01-01T10:44:58.310Z,99348.21
2018-01-01T10:47:25.698Z,99355.03
2018-01-01T10:49:53.087Z,99352.75
2018-01-01T10:52:20.474Z,99345.75
2018-01-01T10:54:47.882Z,99355.88
2018-01-01T10:57:15.263Z,99352.57
2018-01-01T10:59:42.682Z,99349.98
2018-01-01T11:02:10.070Z,99345.46
2018-01-01T11:04:37.464Z,99348.20
2018-01-01T11:07:04.843Z,99342.44
2018-01-01T11:09:32.228Z,99349.22
2018-01-01T11:11:59.607Z,99356.81
2018-01-01T11:14:27.022Z,99362.52
2018-01-01T11:16:55.356Z,99350.25
2018-01-01T11:19:22.738Z,99350.91
2018-01-01T11:21:50.119Z,99352.81
2018-01-01T11:24:17.511Z,99349.28
2018-01-01T11:26:44.894Z,99337.40
2018-01-01T11:29:12.287Z,99342.22
2018-01-01T11:31:39.662Z,99333.97
2018-01-01T11:34:07.070Z,99342.52
2018-01-01T11:36:34.450Z,99346.81
2018-01-01T11:39:01.894Z,99355.97
2018-01-01T11:41:29.274Z,99353.19
2018-01-01T11:43:56.662Z,99345.35
2018-01-01T11:46:24.050Z,99335.38
2018-01-01T11:48:51.442Z,99330.69
2018-01-01T11:51:18.822Z,99320.17
2018-01-01T11:53:46.214Z,99326.09
2018-01-01T11:56:13.682Z,99311.37
2018-01-01T11:58:41.066Z,99313.34
2018-01-01T12:01:08.451Z,99313.76
2018-01-01T12:03:35.826Z,99327.86
2018-01-01T12:06:03.239Z,99308.22
2018-01-01T12:08:30.623Z,99310.09
2018-01-01T12:10:58.039Z,99307.00
2018-01-01T12:13:25.487Z,99309.61
2018-01-01T12:15:52.855Z,99299.25
2018-01-01T12:18:20.308Z,99309.67
2018-01-01T12:20:47.669Z,99316.70
2018-01-01T12:23:15.038Z,99300.00
2018-01-01T12:25:42.434Z,99302.05
2018-01-01T12:28:09.826Z,99307.94
2018-01-01T12:30:37.219Z,99303.45
2018-01-01T12:33:04.619Z,99297.40
2018-01-01T12:35:32.007Z,99298.78
2018-01-01T12:37:59.387Z,99288.73
2018-01-01T12:40:26.874Z,99300.02
2018-01-01T12:42:54.312Z,99294.24
2018-01-01T12:45:21.690Z,99286.23
2018-01-01T12:47:49.073Z,99285.89
2018-01-01T12:50:16.475Z,99288.33
2018-01-01T12:52:43.842Z,99279.14
2018-01-01T12:55:11.229Z,99285.65
2018-01-01T12:57:38.615Z,99279.52
2018-01-01T13:00:05.998Z,99276.00
2018-01-01T13:02:33.391Z,99275.01
2018-01-01T13:05:00.785Z,99263.83
2018-01-01T13:07:28.162Z,99266.80
2018-01-01T13:09:55.547Z,99256.83
2018-01-01T13:12:22.929Z,99256.59
2018-01-01T13:14:50.442Z,99262.09
2018-01-01T13:17:17.826Z,99259.92
2018-01-01T13:19:45.214Z,99263.77
2018-01-01T13:22:12.592Z,99256.91
2018-01-01T13:24:39.986Z,99255.72
2018-01-01T13:27:07.386Z,99257.34
2018-01-01T13:29:34.759Z,99258.70
2018-01-01T13:32:02.150Z,99256.83
2018-01-01T13:34:29.538Z,99248.83
2018-01-01T13:36:56.918Z,99251.70
2018-01-01T13:39:24.346Z,99251.47
2018-01-01T13:41:51.722Z,99257.05
2018-01-01T13:44:19.143Z,99262.06
2018-01-01T13:46:46.522Z,99267.81
2018-01-01T13:49:13.898Z,99263.83
2018-01-01T13:51:41.294Z,99260.44
2018-01-01T13:54:08.674Z,99257.07
2018-01-01T13:56:36.066Z,99253.36
2018-01-01T13:59:03.437Z,99244.57
2018-01-01T14:01:31.671Z,99247.30
2018-01-01T14:03:59.058Z,99244.73
2018-01-01T14:06:26.446Z,99243.25
2018-01-01T14:08:53.863Z,99250.08
2018-01-01T14:11:21.210Z,99243.81
2018-01-01T14:13:48.686Z,99245.20
2018-01-01T14:16:16.080Z,99250.42
2018-01-01T14:18:43.461Z,99251.61
2018-01-01T14:21:10.875Z,99247.89
2018-01-01T14:23:38.293Z,99253.56
2018-01-01T14:26:05.662Z,99250.98
2018-01-01T14:28:33.047Z,99255.55
2018-01-01T14:31:00.441Z,99248.52
2018-01-01T14:33:27.814Z,99252.02
2018-01-01T14:35:55.281Z,99255.19
2018-01-01T14:38:22.671Z,99259.15
2018-01-01T14:40:50.110Z,99261.06
2018-01-01T14:43:17.470Z,99258.20
2018-01-01T14:45:44.907Z,99261.77
2018-01-01T14:48:12.282Z,99263.52
2018-01-01T14:50:39.690Z,99263.87
2018-01-01T14:53:07.074Z,99258.49
2018-01-01T14:55:34.471Z,99251.98
2018-01-01T14:58:01.851Z,99241.66
2018-01-01T15:00:29.339Z,99249.11
2018-01-01T15:02:56.754Z,99245.23
2018-01-01T15:05:24.147Z,99236.67
2018-01-01T15:07:51.527Z,99242.70
2018-01-01T15:10:18.918Z,99242.88
2018-01-01T15:12:46.298Z,99236.77
2018-01-01T15:15:13.688Z,99241.28
2018-01-01T15:17:41.058Z,99234.89
2018-01-01T15:20:08.454Z,99240.88
2018-01-01T15:22:35.848Z,99239.89
2018-01-01T15:25:03.218Z,99240.61
2018-01-01T15:27:30.614Z,99242.17
2018-01-01T15:29:57.990Z,99247.58
2018-01-01T15:32:25.383Z,99237.00
2018-01-01T15:34:52.764Z,99238.26
2018-01-01T15:37:20.167Z,99237.67
2018-01-01T15:39:47.546Z,99233.38
2018-01-01T15:42:14.938Z,99233.14
2018-01-01T15:44:42.369Z,99228.78
2018-01-01T15:47:09.719Z,99229.80
2018-01-01T15:49:37.102Z,99221.64
2018-01-01T15:52:04.515Z,99221.46
2018-01-01T15:54:31.914Z,99224.34
2018-01-01T15:56:59.306Z,99223.27
2018-01-01T15:59:26.698Z,99212.83
2018-01-01T16:01:54.098Z,99208.51
2018-01-01T16:04:21.574Z,99212.53
2018-01-01T16:06:48.961Z,99209.82
2018-01-01T16:09:16.343Z,99211.94
2018-01-01T16:11:43.898Z,99211.95
2018-01-01T16:14:11.275Z,99210.73
2018-01-01T16:16:38.669Z,99205.20
2018-01-01T16:19:06.040Z,99206.92
2018-01-01T16:21:33.426Z,99206.67
2018-01-01T16:24:00.820Z,99203.55
2018-01-01T16:26:28.214Z,99201.52
2018-01-01T16:28:55.589Z,99203.42
2018-01-01T16:31:22.994Z,99202.83
2018-01-01T16:33:50.370Z,99202.66
2018-01-01T16:36:17.772Z,99197.98
2018-01-01T16:38:45.156Z,99191.97
2018-01-01T16:41:12.558Z,99195.34
2018-01-01T16:43:40.087Z,99191.64
2018-01-01T16:46:07.465Z,99182.86
2018-01-01T16:48:34.846Z,99178.92
2018-01-01T16:51:02.246Z,99181.05
2018-01-01T16:53:29.648Z,99181.36
2018-01-01T16:55:57.034Z,99179.08
2018-01-01T16:58:24.424Z,99174.20
2018-01-01T17:00:51.811Z,99177.19
2018-01-01T17:03:19.193Z,99173.58
2018-01-01T17:05:46.589Z,99183.23
2018-01-01T17:08:13.990Z,99180.50
2018-01-01T17:10:41.389Z,99176.81
2018-01-01T17:13:08.809Z,99178.56
2018-01-01T17:15:36.198Z,99176.77
2018-01-01T17:18:03.592Z,99179.47
2018-01-01T17:20:30.978Z,99183.76
2018-01-01T17:22:58.371Z,99183.38
2018-01-01T17:25:25.752Z,99186.58
2018-01-01T17:27:53.147Z,99183.03
2018-01-01T17:30:20.530Z,99184.98
2018-01-01T17:32:47.920Z,99187.01
2018-01-01T17:35:15.302Z,99178.07
2018-01-01T17:37:42.694Z,99170.25
2018-01-01T17:40:10.075Z,99160.41
2018-01-01T17:42:37.498Z,99158.89
2018-01-01T17:45:04.927Z,99161.95
2018-01-01T17:47:32.267Z,99166.81
2018-01-01T17:49:59.650Z,99167.94
2018-01-01T17:52:27.034Z,99169.23
2018-01-01T17:54:54.418Z,99167.38
2018-01-01T17:57:21.802Z,99162.83
2018-01-01T17:59:49.182Z,99159.28
2018-01-01T18:02:16.586Z,99159.30
2018-01-01T18:04:43.954Z,99158.77
2018-01-01T18:07:11.346Z,99159.14
2018-01-01T18:09:38.735Z,99170.51
2018-01-01T18:12:06.122Z,99170.83
2018-01-01T18:14:33.509Z,99172.78
2018-01-01T18:17:00.901Z,99171.50
2018-01-01T18:19:28.282Z,99168.49
2018-01-01T18:21:55.671Z,99164.15
2018-01-01T18:24:23.062Z,99159.76
2018-01-01T18:26:50.465Z,99157.36
2018-01-01T18:29:17.843Z,99161.20
2018-01-01T18:31:45.241Z,99159.36
2018-01-01T18:34:12.622Z,99164.94
2018-01-01T18:36:40.009Z,99159.88
2018-01-01T18:39:07.390Z,99154.03
2018-01-01T18:41:34.779Z,99156.55
2018-01-01T18:44:02.153Z,99152.89
2018-01-01T18:46:29.546Z,99153.67
2018-01-01T18:48:56.947Z,99157.90
2018-01-01T18:51:24.358Z,99152.52
2018-01-01T18:53:51.722Z,99152.69
2018-01-01T18:56:19.118Z,99148.52
2018-01-01T18:58:46.530Z,99152.38
2018-01-01T19:01:13.926Z,99147.60
2018-01-01T19:03:41.318Z,99147.12
2018-01-01T19:06:08.708Z,99142.10
2018-01-01T19:08:36.108Z,99141.06
2018-01-01T19:11:03.490Z,99144.82
2018-01-01T19:13:30.873Z,99149.74
2018-01-01T19:15:58.270Z,99143.27
2018-01-01T19:20:56.647Z,99150.34
2018-01-01T19:23:24.034Z,99143.60
2018-01-01T19:25:51.548Z,99141.00
2018-01-01T19:28:18.930Z,99140.63
2018-01-01T19:30:46.331Z,99141.13
2018-01-01T19:33:13.737Z,99137.03
2018-01-01T19:35:41.118Z,99140.97
2018-01-01T19:38:08.526Z,99132.75
2018-01-01T19:40:35.914Z,99141.42
2018-01-01T19:43:03.326Z,99136.69
2018-01-01T19:45:30.760Z,99135.62
2018-01-01T19:47:58.162Z,99141.33
2018-01-01T19:50:25.569Z,99137.09
2018-01-01T19:52:52.967Z,99136.70
2018-01-01T19:55:20.354Z,99132.61
2018-01-01T19:57:47.735Z,99135.68
2018-01-01T20:00:15.129Z,99137.09
2018-01-01T20:02:42.835Z,99139.94
2018-01-01T20:05:10.253Z,99133.88
2018-01-01T20:07:37.638Z,99137.09
2018-01-01T20:10:05.050Z,99132.99
2018-01-01T20:12:32.455Z,99133.48
2018-01-01T20:14:59.847Z,99131.84
2018-01-01T20:17:27.237Z,99142.53
2018-01-01T20:19:54.626Z,99139.25
2018-01-01T20:22:22.018Z,99141.22
2018-01-01T20:24:49.410Z,99147.75
2018-01-01T20:27:16.790Z,99148.84
2018-01-01T20:29:44.206Z,99155.37
2018-01-01T20:32:11.592Z,99155.48
2018-01-01T20:34:39.061Z,99157.19
2018-01-01T20:37:06.446Z,99162.77
2018-01-01T20:39:33.836Z,99165.30
2018-01-01T20:42:01.218Z,99159.81
2018-01-01T20:44:29.654Z,99159.12
2018-01-01T20:46:57.035Z,99157.53
2018-01-01T20:49:24.476Z,99158.02
2018-01-01T20:51:51.868Z,99162.45
2018-01-01T20:54:19.264Z,99161.48
2018-01-01T20:56:46.655Z,99156.72
2018-01-01T20:59:14.039Z,99163.89
2018-01-01T21:01:41.443Z,99160.33
2018-01-01T21:04:08.830Z,99151.63
2018-01-01T21:06:36.222Z,99149.08
2018-01-01T21:09:03.622Z,99155.91
2018-01-01T21:11:31.106Z,99160.58
2018-01-01T21:13:58.506Z,99160.83
2018-01-01T21:16:25.918Z,99158.60
2018-01-01T21:18:53.302Z,99158.12
2018-01-01T21:21:20.686Z,99161.80
2018-01-01T21:23:48.072Z,99161.73
2018-01-01T21:26:15.462Z,99163.61
2018-01-01T21:28:42.850Z,99160.80
2018-01-01T21:31:10.243Z,99160.63
2018-01-01T21:33:37.623Z,99163.88
2018-01-01T21:36:05.011Z,99175.96
2018-01-01T21:38:32.404Z,99169.87
2018-01-01T21:40:59.807Z,99171.73
2018-01-01T21:43:28.135Z,99178.70
2018-01-01T21:45:55.518Z,99186.02
2018-01-01T21:48:22.912Z,99183.58
2018-01-01T21:50:50.303Z,99191.33
2018-01-01T21:53:17.702Z,99188.53
2018-01-01T21:55:45.092Z,99188.74
2018-01-01T21:58:12.470Z,99198.13
2018-01-01T22:00:39.866Z,99204.02
2018-01-01T22:03:07.254Z,99206.69
2018-01-01T22:05:34.671Z,99212.91
2018-01-01T22:08:02.088Z,99212.56
2018-01-01T22:10:29.455Z,99219.35
2018-01-01T22:12:56.833Z,99215.20
2018-01-01T22:15:24.211Z,99217.28
2018-01-01T22:17:51.597Z,99216.63
2018-01-01T22:20:18.971Z,99220.16
2018-01-01T22:22:46.367Z,99220.98
2018-01-01T22:25:13.782Z,99221.99
2018-01-01T22:27:41.173Z,99226.25
2018-01-01T22:30:08.558Z,99224.17
2018-01-01T22:32:35.942Z,99225.66
2018-01-01T22:35:03.327Z,99226.25
2018-01-01T22:37:31.243Z,99226.39
2018-01-01T22:39:58.622Z,99229.50
2018-01-01T22:42:26.022Z,99228.22
2018-01-01T22:44:53.424Z,99242.19
2018-01-01T22:47:20.815Z,99236.33
2018-01-01T22:49:48.242Z,99238.72
2018-01-01T22:52:15.630Z,99242.39
2018-01-01T22:54:43.018Z,99243.98
2018-01-01T22:57:10.406Z,99245.13
2018-01-01T22:59:37.858Z,99248.97
2018-01-01T23:02:05.244Z,99248.48
2018-01-01T23:04:32.625Z,99252.37
2018-01-01T23:07:00.023Z,99251.60
2018-01-01T23:09:27.421Z,99251.02
2018-01-01T23:11:54.834Z,99252.92
2018-01-01T23:14:22.222Z,99250.63
2018-01-01T23:16:49.610Z,99254.66
2018-01-01T23:19:17.100Z,99251.22
2018-01-01T23:21:44.532Z,99254.09
2018-01-01T23:24:11.911Z,99257.08
2018-01-01T23:26:39.310Z,99260.95
2018-01-01T23:29:06.692Z,99261.89
2018-01-01T23:31:34.081Z,99262.06
2018-01-01T23:34:01.470Z,99264.70
2018-01-01T23:36:28.857Z,99262.45
2018-01-01T23:38:56.246Z,99267.19
2018-01-01T23:41:23.628Z,99277.05
2018-01-01T23:43:51.020Z,99274.52
2018-01-01T23:46:18.414Z,99268.50
2018-01-01T23:48:45.803Z,99276.48
2018-01-01T23:51:13.225Z,99279.77
2018-01-01T23:53:40.623Z,99280.19
2018-01-01T23:56:08.002Z,99279.84
2018-01-01T23:58:35.394Z,99281.02
